Time;durP1;ratioP1;P1;durP2;ratioP2;P2;SDS_P1;SDS_P2;PMS_P1;PMS_P2;Temp;Humidity;BMP_temperature;BMP_pressure;BME280_temperature;BME280_humidity;BME280_pressure;Samples;Min_cycle;Max_cycle;Signal;HPM_P1;HPM_P2
2022/10/24 00:01:20;;;;;;;9.60;3.33;;;16.70;99.90;;;;;;5055366;28;20763;-72
2022/10/24 00:03:49;;;;;;;3.57;2.43;;;16.70;99.90;;;;;;5055307;28;20947;-72
2022/10/24 00:06:21;;;;;;;5.90;2.97;;;16.70;99.90;;;;;;5054948;28;20439;-72
2022/10/24 00:08:48;;;;;;;7.20;3.00;;;16.70;99.90;;;;;;5072778;28;20466;-72
2022/10/24 00:11:22;;;;;;;8.40;3.30;;;16.60;99.90;;;;;;5038938;28;20450;-72
2022/10/24 00:13:52;;;;;;;6.43;3.27;;;16.70;99.90;;;;;;5055267;28;20465;-72
2022/10/24 00:16:18;;;;;;;8.30;2.80;;;16.70;99.90;;;;;;5054925;28;20766;-72
2022/10/24 00:18:44;;;;;;;5.03;3.73;;;16.70;99.90;;;;;;5052326;28;20446;-72
2022/10/24 00:21:12;;;;;;;8.60;2.93;;;16.60;99.90;;;;;;5092388;28;20465;-71
2022/10/24 00:23:43;;;;;;;4.90;2.73;;;16.60;99.90;;;;;;5074970;28;20805;-72
2022/10/24 00:26:15;;;;;;;7.17;3.30;;;16.60;99.90;;;;;;5086752;28;20841;-72
2022/10/24 00:28:43;;;;;;;7.53;3.30;;;16.60;99.90;;;;;;5057231;28;20501;-72
2022/10/24 00:31:14;;;;;;;10.43;3.53;;;16.70;99.90;;;;;;5066313;28;20418;-72
2022/10/24 00:33:41;;;;;;;6.97;3.10;;;16.60;99.90;;;;;;5021503;28;20410;-71
2022/10/24 00:36:14;;;;;;;8.03;4.30;;;16.60;99.90;;;;;;5055576;28;20923;-72
2022/10/24 00:38:40;;;;;;;9.80;3.27;;;16.60;99.90;;;;;;5037858;28;20450;-72
2022/10/24 00:41:15;;;;;;;5.77;2.77;;;16.60;99.90;;;;;;5062429;28;20459;-72
2022/10/24 00:43:43;;;;;;;8.53;3.13;;;16.60;99.90;;;;;;5092684;28;20402;-72
2022/10/24 00:46:10;;;;;;;11.70;3.83;;;16.60;99.90;;;;;;5073620;28;20438;-71
2022/10/24 00:48:47;;;;;;;4.73;2.63;;;16.60;99.90;;;;;;5074453;28;20541;-72
2022/10/24 00:51:29;;;;;;;5.40;3.23;;;16.60;99.90;;;;;;5049786;28;20853;-71
2022/10/24 00:53:59;;;;;;;6.10;3.23;;;16.60;99.90;;;;;;5037962;28;20457;-72
2022/10/24 00:56:31;;;;;;;5.73;3.53;;;16.60;99.90;;;;;;5074484;28;20855;-71
2022/10/24 00:59:06;;;;;;;6.63;3.30;;;16.60;99.90;;;;;;5074326;28;20455;-72
2022/10/24 01:01:33;;;;;;;9.43;3.17;;;16.60;99.90;;;;;;5066037;28;20501;-72
2022/10/24 01:03:59;;;;;;;13.13;3.10;;;16.60;99.90;;;;;;5073883;28;20477;-72
2022/10/24 01:06:57;;;;;;;7.40;3.53;;;16.60;99.90;;;;;;5057663;28;20409;-72
2022/10/24 01:09:40;;;;;;;7.03;3.13;;;16.60;99.90;;;;;;5089882;28;20844;-72
2022/10/24 01:12:23;;;;;;;8.60;3.00;;;16.60;99.90;;;;;;5090731;28;20950;-72
2022/10/24 01:15:23;;;;;;;9.47;3.50;;;16.60;99.90;;;;;;5054079;28;20903;-72
2022/10/24 01:18:00;;;;;;;8.63;3.30;;;16.50;99.90;;;;;;5072600;28;20457;-72
2022/10/24 01:20:39;;;;;;;9.40;2.67;;;16.60;99.90;;;;;;5071947;28;20801;-72
2022/10/24 01:23:25;;;;;;;9.00;3.80;;;16.50;99.90;;;;;;5053572;28;20524;-72
2022/10/24 01:25:59;;;;;;;16.50;3.67;;;16.60;99.90;;;;;;5092005;28;20496;-71
2022/10/24 01:28:44;;;;;;;5.17;3.03;;;16.60;99.90;;;;;;5091661;28;20475;-72
2022/10/24 01:31:21;;;;;;;5.77;3.20;;;16.50;99.90;;;;;;5092303;28;20437;-72
2022/10/24 01:33:55;;;;;;;6.20;3.00;;;16.50;99.90;;;;;;5092279;28;20912;-72
2022/10/24 01:36:51;;;;;;;10.30;4.00;;;16.50;99.90;;;;;;5091414;28;20413;-71
2022/10/24 01:39:20;;;;;;;4.00;3.33;;;16.50;99.90;;;;;;5034122;28;20434;-71
2022/10/24 01:41:49;;;;;;;5.30;3.10;;;16.50;99.90;;;;;;5028898;28;20572;-72
2022/10/24 01:44:29;;;;;;;9.03;4.80;;;16.50;99.90;;;;;;5061496;28;20399;-72
2022/10/24 01:47:06;;;;;;;7.93;3.30;;;16.50;99.90;;;;;;5076875;28;20440;-71
2022/10/24 01:49:39;;;;;;;5.70;3.00;;;16.50;99.90;;;;;;5095681;28;20809;-71
2022/10/24 01:52:11;;;;;;;6.67;2.90;;;16.50;99.90;;;;;;5059242;28;20421;-72
2022/10/24 01:54:38;;;;;;;5.90;3.50;;;16.50;99.90;;;;;;5075467;28;20402;-72
2022/10/24 01:57:07;;;;;;;11.03;3.50;;;16.50;99.90;;;;;;5050264;28;20432;-72
2022/10/24 01:59:33;;;;;;;7.93;3.20;;;16.50;99.90;;;;;;5077179;28;20940;-72
2022/10/24 02:02:15;;;;;;;6.40;3.43;;;16.50;99.90;;;;;;5052622;28;20532;-72
2022/10/24 02:04:53;;;;;;;6.37;3.27;;;16.50;99.90;;;;;;5043695;28;20433;-72
2022/10/24 02:07:23;;;;;;;6.60;3.20;;;16.50;99.90;;;;;;5076692;28;20754;-72
2022/10/24 02:09:55;;;;;;;6.40;3.03;;;16.50;99.90;;;;;;5060467;28;20461;-71
2022/10/24 02:12:24;;;;;;;7.00;2.90;;;16.50;99.90;;;;;;5082737;28;20423;-72
2022/10/24 02:14:56;;;;;;;7.50;3.57;;;16.50;99.90;;;;;;5081785;28;20412;-72
2022/10/24 02:17:30;;;;;;;6.97;3.10;;;16.50;99.90;;;;;;5095419;28;20448;-72
2022/10/24 02:19:59;;;;;;;5.60;3.00;;;16.50;99.90;;;;;;5074564;28;20979;-72
2022/10/24 02:22:32;;;;;;;6.67;2.77;;;16.40;99.90;;;;;;5077032;28;20425;-72
2022/10/24 02:25:10;;;;;;;6.87;3.23;;;16.40;99.90;;;;;;5077327;28;20899;-72
2022/10/24 02:27:48;;;;;;;8.33;3.63;;;16.50;99.90;;;;;;5094787;28;20450;-72
2022/10/24 02:30:21;;;;;;;5.80;2.83;;;16.50;99.90;;;;;;5060250;28;20458;-72
2022/10/24 02:32:57;;;;;;;9.93;3.10;;;16.50;99.90;;;;;;5061459;28;20419;-72
2022/10/24 02:35:28;;;;;;;9.00;3.00;;;16.40;99.90;;;;;;5086488;28;20514;-72
2022/10/24 02:38:08;;;;;;;10.50;3.23;;;16.40;99.90;;;;;;5095132;28;20441;-72
2022/10/24 02:40:35;;;;;;;8.47;3.83;;;16.50;99.90;;;;;;5076787;28;20772;-72
2022/10/24 02:43:06;;;;;;;10.50;3.53;;;16.40;99.90;;;;;;5042861;28;20972;-72
2022/10/24 02:45:35;;;;;;;6.07;2.97;;;16.40;99.90;;;;;;5040380;28;20434;-72
2022/10/24 02:48:09;;;;;;;7.70;3.40;;;16.40;99.90;;;;;;5056693;28;20528;-72
2022/10/24 02:50:40;;;;;;;6.17;2.80;;;16.40;99.90;;;;;;5053412;28;20413;-72
2022/10/24 02:53:12;;;;;;;7.10;3.43;;;16.40;99.90;;;;;;5058149;28;20481;-72
2022/10/24 02:55:41;;;;;;;11.23;3.57;;;16.40;99.90;;;;;;5070711;28;20436;-72
2022/10/24 02:58:07;;;;;;;5.10;2.70;;;16.40;99.90;;;;;;5043789;28;20466;-72
2022/10/24 03:00:36;;;;;;;8.60;3.40;;;16.40;99.90;;;;;;5069305;28;20461;-71
2022/10/24 03:03:04;;;;;;;5.90;3.07;;;16.40;99.90;;;;;;5075440;28;20929;-72
2022/10/24 03:05:32;;;;;;;9.60;3.40;;;16.40;99.90;;;;;;5056532;28;20409;-72
2022/10/24 03:07:58;;;;;;;8.43;3.40;;;16.40;99.90;;;;;;5056337;28;20464;-71
2022/10/24 03:10:27;;;;;;;6.80;2.90;;;16.40;99.90;;;;;;5076246;28;20425;-71
2022/10/24 03:12:53;;;;;;;4.73;2.80;;;16.40;99.90;;;;;;5076011;28;20863;-72
2022/10/24 03:15:19;;;;;;;6.37;2.90;;;16.40;99.90;;;;;;5032770;28;20953;-72
2022/10/24 03:17:48;;;;;;;4.73;2.80;;;16.40;99.90;;;;;;5039927;28;20501;-72
2022/10/24 03:20:14;;;;;;;5.70;3.30;;;16.40;99.90;;;;;;5064146;28;20996;-71
2022/10/24 03:22:42;;;;;;;5.93;3.40;;;16.40;99.90;;;;;;5061400;28;20424;-71
2022/10/24 03:25:11;;;;;;;9.17;3.40;;;16.40;99.90;;;;;;5074804;28;20433;-72
2022/10/24 03:27:39;;;;;;;6.73;3.27;;;16.40;99.90;;;;;;5035691;28;20514;-72
2022/10/24 03:30:05;;;;;;;4.73;2.90;;;16.40;99.90;;;;;;5075269;28;20488;-72
2022/10/24 03:32:34;;;;;;;11.43;3.43;;;16.40;99.90;;;;;;5046112;28;20973;-71
2022/10/24 03:35:06;;;;;;;7.40;4.03;;;16.40;99.90;;;;;;5077431;28;20785;-72
2022/10/24 03:37:34;;;;;;;7.67;3.57;;;16.40;99.90;;;;;;5075836;28;20863;-72
2022/10/24 03:40:03;;;;;;;5.03;3.07;;;16.30;99.90;;;;;;5055519;28;20414;-72
2022/10/24 03:42:37;;;;;;;8.20;3.40;;;16.30;99.90;;;;;;5044089;28;20442;-72
2022/10/24 03:45:06;;;;;;;3.93;2.67;;;16.30;99.90;;;;;;5052378;28;20453;-72
2022/10/24 03:47:32;;;;;;;4.73;3.00;;;16.30;99.90;;;;;;5063484;28;20889;-71
2022/10/24 03:49:58;;;;;;;6.23;3.50;;;16.30;99.90;;;;;;5072985;28;20468;-72
2022/10/24 03:52:26;;;;;;;5.93;3.10;;;16.30;99.90;;;;;;5081752;28;20426;-71
2022/10/24 03:54:54;;;;;;;4.03;2.80;;;16.30;99.90;;;;;;5079643;28;20162;-72
2022/10/24 03:57:20;;;;;;;6.67;3.30;;;16.30;99.90;;;;;;5075316;28;20854;-72
2022/10/24 03:59:46;;;;;;;5.93;2.80;;;16.30;99.90;;;;;;5089035;28;20448;-72
2022/10/24 04:02:13;;;;;;;7.37;3.10;;;16.30;99.90;;;;;;5092186;28;20578;-71
2022/10/24 04:04:39;;;;;;;5.40;2.90;;;16.30;99.90;;;;;;5034862;28;20431;-72
2022/10/24 04:07:05;;;;;;;6.93;3.60;;;16.30;99.90;;;;;;5055138;28;20464;-72
2022/10/24 04:09:31;;;;;;;8.07;3.40;;;16.30;99.90;;;;;;5038317;28;20468;-72
2022/10/24 04:11:57;;;;;;;4.87;2.97;;;16.30;99.90;;;;;;5048657;28;20412;-72
2022/10/24 04:14:23;;;;;;;7.30;3.07;;;16.30;99.90;;;;;;5075113;28;20413;-72
2022/10/24 04:16:51;;;;;;;6.23;2.90;;;16.20;99.90;;;;;;5033270;28;20419;-72
2022/10/24 04:19:17;;;;;;;8.10;3.80;;;16.20;99.90;;;;;;5054882;28;20432;-72
2022/10/24 04:21:46;;;;;;;7.53;4.00;;;16.20;99.90;;;;;;5063276;28;20758;-72
2022/10/24 04:24:17;;;;;;;5.83;2.83;;;16.20;99.90;;;;;;5042175;28;20448;-72
2022/10/24 04:26:46;;;;;;;3.90;2.40;;;16.20;99.90;;;;;;5071539;28;20423;-72
2022/10/24 04:29:14;;;;;;;5.57;2.60;;;16.20;99.90;;;;;;5091863;28;20474;-71
2022/10/24 04:32:01;;;;;;;3.77;2.30;;;16.20;99.90;;;;;;5081803;28;20424;-72
2022/10/24 04:34:34;;;;;;;6.03;2.60;;;16.20;99.90;;;;;;5038250;28;20972;-72
2022/10/24 04:37:03;;;;;;;7.10;3.27;;;16.20;99.90;;;;;;5056147;28;20401;-72
2022/10/24 04:39:29;;;;;;;5.83;2.50;;;16.20;99.90;;;;;;5054174;28;20409;-72
2022/10/24 04:41:55;;;;;;;4.10;2.83;;;16.20;99.90;;;;;;5047568;28;20426;-71
2022/10/24 04:44:26;;;;;;;10.90;3.43;;;16.20;99.90;;;;;;5038422;28;20982;-73
2022/10/24 04:46:52;;;;;;;4.53;2.80;;;16.20;99.90;;;;;;5038110;28;20944;-72
2022/10/24 04:49:18;;;;;;;5.13;2.50;;;16.20;99.90;;;;;;5072780;28;20479;-72
2022/10/24 04:51:44;;;;;;;7.23;3.30;;;16.20;99.90;;;;;;5057048;28;20179;-72
2022/10/24 04:54:10;;;;;;;3.80;2.60;;;16.20;99.90;;;;;;5073874;28;20482;-72
2022/10/24 04:56:36;;;;;;;6.67;2.73;;;16.20;99.90;;;;;;5049606;28;20423;-72
2022/10/24 04:59:02;;;;;;;5.50;2.60;;;16.20;99.90;;;;;;5046486;28;20461;-72
2022/10/24 05:01:28;;;;;;;5.77;2.60;;;16.20;99.90;;;;;;5085170;28;20429;-72
2022/10/24 05:03:56;;;;;;;4.30;2.80;;;16.20;99.90;;;;;;5067149;28;20404;-72
2022/10/24 05:06:22;;;;;;;10.30;2.90;;;16.20;99.90;;;;;;5067724;28;20439;-72
2022/10/24 05:08:51;;;;;;;5.40;2.37;;;16.20;99.90;;;;;;5033723;28;21064;-72
2022/10/24 05:11:17;;;;;;;5.27;2.90;;;16.20;99.90;;;;;;5054022;28;20453;-72
2022/10/24 05:13:48;;;;;;;5.13;3.37;;;16.20;99.90;;;;;;5054851;28;20415;-72
2022/10/24 05:16:14;;;;;;;5.10;2.60;;;16.20;99.90;;;;;;5057698;28;20449;-72
2022/10/24 05:18:40;;;;;;;6.70;2.60;;;16.20;99.90;;;;;;5052783;28;20456;-72
2022/10/24 05:21:06;;;;;;;7.33;2.73;;;16.20;99.90;;;;;;5095592;28;20783;-71
2022/10/24 05:23:34;;;;;;;7.50;2.80;;;16.20;99.90;;;;;;5077234;28;20457;-72
2022/10/24 05:26:05;;;;;;;3.93;2.80;;;16.20;99.90;;;;;;5077977;28;20413;-72
2022/10/24 05:28:34;;;;;;;6.40;2.50;;;16.20;99.90;;;;;;5094493;28;20495;-72
2022/10/24 05:31:02;;;;;;;4.83;2.80;;;16.20;99.90;;;;;;5061148;28;20451;-72
2022/10/24 05:33:28;;;;;;;6.07;2.87;;;16.20;99.90;;;;;;5074347;28;20414;-72
2022/10/24 05:35:57;;;;;;;7.17;3.20;;;16.20;99.90;;;;;;5052713;28;20416;-72
2022/10/24 05:38:34;;;;;;;3.50;3.07;;;16.20;99.90;;;;;;5078395;28;20523;-72
2022/10/24 05:41:00;;;;;;;5.03;2.73;;;16.20;99.90;;;;;;5095830;28;20412;-72
2022/10/24 05:43:26;;;;;;;5.80;2.93;;;16.20;99.90;;;;;;5059640;28;20419;-72
2022/10/24 05:45:52;;;;;;;6.90;3.23;;;16.10;99.90;;;;;;5061212;28;20419;-72
2022/10/24 05:48:22;;;;;;;4.53;2.40;;;16.20;99.90;;;;;;5086291;28;20454;-72
2022/10/24 05:50:48;;;;;;;5.73;2.77;;;16.10;99.90;;;;;;5041028;28;20786;-72
2022/10/24 05:53:17;;;;;;;7.73;2.93;;;16.10;99.90;;;;;;5045102;28;20214;-72
2022/10/24 05:55:45;;;;;;;6.50;2.33;;;16.10;99.90;;;;;;5074191;28;20397;-72
2022/10/24 05:58:13;;;;;;;5.47;3.33;;;16.10;99.90;;;;;;5040940;28;20971;-72
2022/10/24 06:00:41;;;;;;;7.30;3.20;;;16.10;99.90;;;;;;5056679;28;20454;-72
2022/10/24 06:03:10;;;;;;;6.20;3.00;;;16.10;99.90;;;;;;5047754;28;20570;-72
2022/10/24 06:05:40;;;;;;;6.10;2.73;;;16.10;99.90;;;;;;5079029;28;20434;-72
2022/10/24 06:08:06;;;;;;;5.77;2.60;;;16.10;99.90;;;;;;5058977;28;20998;-72
2022/10/24 06:10:35;;;;;;;4.03;2.60;;;16.10;99.90;;;;;;5091613;28;20945;-72
2022/10/24 06:13:02;;;;;;;8.17;2.50;;;16.10;99.90;;;;;;5043333;28;20444;-72
2022/10/24 06:15:30;;;;;;;6.83;3.17;;;16.10;99.90;;;;;;5047984;28;20437;-72
2022/10/24 06:17:59;;;;;;;4.53;2.50;;;16.10;99.90;;;;;;5058254;28;20434;-72
2022/10/24 06:20:25;;;;;;;5.43;2.60;;;16.10;99.90;;;;;;5072070;28;20425;-72
2022/10/24 06:22:54;;;;;;;5.93;2.67;;;16.10;99.90;;;;;;5058725;28;20409;-71
2022/10/24 06:25:22;;;;;;;4.80;2.23;;;16.00;99.90;;;;;;5092755;28;20398;-72
2022/10/24 06:27:48;;;;;;;4.53;3.00;;;16.10;99.90;;;;;;5060892;28;20444;-72
2022/10/24 06:30:16;;;;;;;6.13;2.50;;;16.00;99.90;;;;;;5040751;28;20477;-72
2022/10/24 06:32:47;;;;;;;5.00;2.63;;;16.00;99.90;;;;;;5050811;28;20910;-72
2022/10/24 06:35:14;;;;;;;2.93;2.10;;;16.00;99.90;;;;;;5077059;28;20433;-72
2022/10/24 06:37:42;;;;;;;5.10;2.20;;;16.00;99.90;;;;;;5082364;28;20478;-72
2022/10/24 06:40:09;;;;;;;5.40;2.67;;;16.10;99.90;;;;;;5023569;28;20444;-72
2022/10/24 06:42:40;;;;;;;6.03;2.80;;;16.00;99.90;;;;;;5040372;28;20426;-71
2022/10/24 06:45:06;;;;;;;6.03;2.43;;;16.00;99.90;;;;;;5076372;28;20429;-72
2022/10/24 06:47:32;;;;;;;5.60;2.43;;;16.00;99.90;;;;;;5040450;28;20449;-72
2022/10/24 06:50:01;;;;;;;10.83;2.43;;;16.00;99.90;;;;;;5056387;28;20969;-72
2022/10/24 06:52:27;;;;;;;2.87;2.37;;;16.00;99.90;;;;;;5065775;28;20414;-72
2022/10/24 06:55:12;;;;;;;5.33;2.70;;;16.10;99.90;;;;;;5064903;28;20519;-71
2022/10/24 06:57:38;;;;;;;6.30;2.70;;;16.00;99.90;;;;;;5056270;28;20445;-72
2022/10/24 07:00:10;;;;;;;3.03;2.10;;;16.00;99.90;;;;;;5056482;28;20821;-72
2022/10/24 07:02:39;;;;;;;3.87;2.10;;;16.00;99.90;;;;;;5039323;28;20431;-72
2022/10/24 07:05:11;;;;;;;5.33;2.40;;;16.00;99.90;;;;;;5077388;28;20430;-72
2022/10/24 07:07:39;;;;;;;3.97;2.00;;;16.00;99.90;;;;;;5055678;28;20445;-72
2022/10/24 07:10:06;;;;;;;4.70;2.50;;;16.00;99.90;;;;;;5055982;28;20449;-72
2022/10/24 07:12:34;;;;;;;3.27;1.97;;;16.00;99.90;;;;;;5076452;28;20417;-71
2022/10/24 07:15:03;;;;;;;5.13;2.53;;;16.00;99.90;;;;;;5094330;28;20420;-71
2022/10/24 07:17:36;;;;;;;4.00;2.60;;;16.00;99.90;;;;;;5073456;28;20453;-71
2022/10/24 07:20:03;;;;;;;5.50;2.67;;;16.00;99.90;;;;;;5055949;28;20932;-71
2022/10/24 07:22:31;;;;;;;3.57;1.93;;;16.00;99.90;;;;;;5074755;28;20398;-71
2022/10/24 07:24:59;;;;;;;5.93;2.60;;;16.00;99.90;;;;;;5074058;28;20421;-71
2022/10/24 07:27:28;;;;;;;7.97;2.37;;;16.00;99.90;;;;;;5073822;28;20449;-71
2022/10/24 07:29:54;;;;;;;4.90;2.20;;;16.00;99.90;;;;;;5055677;28;20445;-71
2022/10/24 07:32:27;;;;;;;3.40;2.17;;;16.00;99.90;;;;;;5070144;28;20419;-71
2022/10/24 07:34:57;;;;;;;3.20;2.07;;;16.00;99.90;;;;;;5055809;28;20939;-71
2022/10/24 07:37:24;;;;;;;4.17;2.07;;;16.00;99.90;;;;;;5055362;28;20443;-71
2022/10/24 07:39:52;;;;;;;7.57;2.23;;;15.90;99.90;;;;;;5075450;28;20436;-72
2022/10/24 07:42:18;;;;;;;2.80;1.80;;;16.00;99.90;;;;;;5073273;28;20430;-71
2022/10/24 07:44:44;;;;;;;5.70;1.80;;;16.00;99.90;;;;;;5061424;28;20439;-71
2022/10/24 07:47:15;;;;;;;4.37;2.50;;;16.00;99.90;;;;;;5057639;28;20475;-71
2022/10/24 07:49:43;;;;;;;6.60;2.57;;;16.00;99.90;;;;;;5075375;28;20864;-71
2022/10/24 07:52:12;;;;;;;3.10;2.23;;;16.00;99.90;;;;;;5092827;28;20392;-71
2022/10/24 07:54:40;;;;;;;4.97;2.67;;;16.00;99.90;;;;;;5056017;28;20406;-72
2022/10/24 07:57:06;;;;;;;4.70;1.97;;;15.90;99.90;;;;;;5061357;28;20505;-71
2022/10/24 07:59:32;;;;;;;5.93;2.27;;;16.00;99.90;;;;;;5064629;28;20476;-71
2022/10/24 08:01:58;;;;;;;4.60;2.20;;;16.00;99.90;;;;;;5068735;28;20468;-71
2022/10/24 08:04:27;;;;;;;4.50;1.97;;;16.00;99.90;;;;;;5052839;28;20438;-71
2022/10/24 08:06:53;;;;;;;3.33;1.80;;;16.00;99.90;;;;;;5074869;28;20423;-72
2022/10/24 08:09:20;;;;;;;5.33;2.30;;;16.00;99.90;;;;;;5058227;28;20502;-72
2022/10/24 08:11:51;;;;;;;4.10;1.97;;;16.00;99.90;;;;;;5072858;28;20409;-72
2022/10/24 08:14:17;;;;;;;7.23;2.30;;;16.00;99.90;;;;;;5056153;28;20465;-71
2022/10/24 08:16:43;;;;;;;5.10;2.30;;;16.00;99.90;;;;;;5050141;28;20813;-71
2022/10/24 08:19:22;;;;;;;6.87;2.03;;;16.00;99.90;;;;;;5057924;28;20479;-72
2022/10/24 08:21:49;;;;;;;4.50;1.83;;;16.00;99.90;;;;;;5066768;28;20792;-72
2022/10/24 08:24:15;;;;;;;2.83;2.00;;;16.00;99.90;;;;;;5040857;28;20425;-72
2022/10/24 08:26:41;;;;;;;3.80;2.30;;;16.00;99.90;;;;;;5064884;28;20424;-72
2022/10/24 08:29:11;;;;;;;8.43;2.13;;;16.00;99.90;;;;;;5057721;28;21017;-72
2022/10/24 08:31:39;;;;;;;4.17;2.20;;;16.00;99.90;;;;;;5078317;28;20426;-72
2022/10/24 08:34:05;;;;;;;5.60;2.47;;;16.00;99.90;;;;;;5078080;28;20695;-72
2022/10/24 08:36:34;;;;;;;4.80;2.00;;;16.00;99.90;;;;;;5031734;28;20954;-73
2022/10/24 08:39:03;;;;;;;2.80;1.93;;;16.00;99.90;;;;;;5064353;28;20524;-72
2022/10/24 08:41:36;;;;;;;4.00;2.30;;;16.00;99.90;;;;;;5064572;28;20468;-72
2022/10/24 08:44:25;;;;;;;5.07;2.00;;;16.00;99.90;;;;;;5049916;28;20489;-72
2022/10/24 08:46:54;;;;;;;3.23;2.00;;;16.00;99.90;;;;;;5063643;28;20414;-72
2022/10/24 08:49:30;;;;;;;5.70;2.20;;;16.00;99.90;;;;;;5064082;28;21080;-72
2022/10/24 08:52:00;;;;;;;4.30;1.83;;;16.00;99.90;;;;;;5046912;28;20430;-72
2022/10/24 08:54:35;;;;;;;4.90;1.70;;;16.00;99.90;;;;;;5070917;28;20405;-72
2022/10/24 08:57:02;;;;;;;3.40;1.80;;;16.00;99.90;;;;;;5071916;28;20465;-72
2022/10/24 08:59:32;;;;;;;4.57;2.13;;;16.00;99.90;;;;;;5055508;28;20527;-72
2022/10/24 09:02:12;;;;;;;4.03;2.20;;;16.00;99.90;;;;;;5056075;28;20437;-72
2022/10/24 09:04:48;;;;;;;8.53;2.20;;;16.00;99.90;;;;;;5092020;28;20482;-72
2022/10/24 09:07:22;;;;;;;5.57;1.70;;;16.00;99.90;;;;;;5041934;28;20457;-71
2022/10/24 09:10:16;;;;;;;4.93;2.00;;;16.00;99.90;;;;;;5069311;28;20467;-76
2022/10/24 09:12:45;;;;;;;4.23;1.70;;;16.00;99.90;;;;;;5069597;28;20524;-75
2022/10/24 09:15:22;;;;;;;3.40;1.60;;;16.10;99.90;;;;;;5037658;28;20927;-72
2022/10/24 09:17:50;;;;;;;4.33;2.00;;;16.00;99.90;;;;;;5072821;28;20516;-72
2022/10/24 09:20:25;;;;;;;5.20;2.63;;;16.10;99.90;;;;;;5073004;28;20430;-72
2022/10/24 09:22:53;;;;;;;7.27;2.03;;;16.10;99.90;;;;;;5048149;28;20863;-72
2022/10/24 09:25:22;;;;;;;5.23;1.70;;;16.10;99.90;;;;;;5037478;28;20433;-72
2022/10/24 09:27:49;;;;;;;6.83;1.70;;;16.10;99.90;;;;;;5019915;28;20456;-72
2022/10/24 09:30:19;;;;;;;5.63;2.10;;;16.10;99.90;;;;;;5051849;28;20477;-72
2022/10/24 09:32:53;;;;;;;5.60;1.50;;;16.10;99.90;;;;;;5077527;28;20424;-73
2022/10/24 09:35:24;;;;;;;5.17;1.80;;;16.10;99.90;;;;;;5036279;28;20674;-72
2022/10/24 09:37:58;;;;;;;4.10;1.60;;;16.10;99.90;;;;;;5060484;28;21335;-72
2022/10/24 09:40:25;;;;;;;6.40;1.77;;;16.10;99.90;;;;;;5036075;28;20429;-72
2022/10/24 09:43:12;;;;;;;4.90;1.90;;;16.20;99.90;;;;;;5077623;28;20414;-72
2022/10/24 09:45:41;;;;;;;7.13;2.00;;;16.20;99.90;;;;;;5053391;28;20422;-72
2022/10/24 09:48:25;;;;;;;6.07;1.93;;;16.20;99.90;;;;;;5058650;28;20803;-73
2022/10/24 09:50:53;;;;;;;4.57;2.07;;;16.20;99.90;;;;;;5067835;28;20413;-72
2022/10/24 09:53:31;;;;;;;5.73;1.70;;;16.20;99.90;;;;;;5052547;28;20785;-72
2022/10/24 09:56:06;;;;;;;4.93;1.90;;;16.20;99.90;;;;;;5041913;28;20408;-72
2022/10/24 09:58:32;;;;;;;15.23;1.87;;;16.20;99.90;;;;;;5091532;28;20431;-72
2022/10/24 10:01:15;;;;;;;4.90;1.90;;;16.20;99.90;;;;;;5086729;28;20457;-72
2022/10/24 10:03:41;;;;;;;8.37;1.87;;;16.20;99.90;;;;;;5043102;28;20945;-74
2022/10/24 10:06:26;;;;;;;7.80;1.80;;;16.20;99.90;;;;;;5044400;28;20427;-74
2022/10/24 10:08:56;;;;;;;9.43;1.80;;;16.20;99.90;;;;;;5086649;28;20804;-72
2022/10/24 10:11:31;;;;;;;4.47;1.77;;;16.20;99.90;;;;;;5089226;28;20952;-71
2022/10/24 10:14:01;;;;;;;7.23;1.60;;;16.30;99.90;;;;;;5068616;28;20415;-72
2022/10/24 10:16:36;;;;;;;3.90;1.30;;;16.30;99.90;;;;;;5089366;28;20421;-71
2022/10/24 10:19:12;;;;;;;5.67;1.70;;;16.30;99.90;;;;;;5039522;28;20449;-72
2022/10/24 10:21:54;;;;;;;6.20;1.60;;;16.30;99.90;;;;;;5060282;28;20418;-73
2022/10/24 10:24:44;;;;;;;6.00;1.70;;;16.30;99.90;;;;;;5041850;28;20422;-74
2022/10/24 10:27:32;;;;;;;9.00;2.27;;;16.30;99.90;;;;;;5062802;28;20449;-71
2022/10/24 10:30:18;;;;;;;6.07;1.60;;;16.30;99.90;;;;;;5060059;28;20463;-71
2022/10/24 10:33:10;;;;;;;4.70;1.90;;;16.30;99.90;;;;;;5049940;28;20434;-71
2022/10/24 10:35:47;;;;;;;5.63;1.77;;;16.30;99.90;;;;;;5075316;28;20474;-71
2022/10/24 10:38:34;;;;;;;7.93;2.40;;;16.30;99.90;;;;;;5061274;28;20449;-72
2022/10/24 10:41:23;;;;;;;6.37;1.80;;;16.30;99.90;;;;;;5139339;22;20409;-70
2022/10/24 10:44:26;;;;;;;19.10;2.50;;;16.30;99.90;;;;;;5042220;28;20988;-70
2022/10/24 10:47:28;;;;;;;5.43;2.43;;;16.30;99.90;;;;;;5037824;28;20427;-69
2022/10/24 10:49:57;;;;;;;7.03;1.90;;;16.30;99.90;;;;;;5030772;28;20529;-69
2022/10/24 10:52:29;;;;;;;4.40;2.17;;;16.30;99.90;;;;;;5042792;28;20587;-69
2022/10/24 10:55:33;;;;;;;4.03;1.57;;;16.30;99.90;;;;;;5009204;28;20446;-69
2022/10/24 10:58:47;;;;;;;10.53;1.73;;;16.40;99.90;;;;;;5017132;28;20497;-69
2022/10/24 11:01:37;;;;;;;6.43;1.80;;;16.30;99.90;;;;;;5032292;28;20431;-68
2022/10/24 11:04:17;;;;;;;6.90;1.70;;;16.40;99.90;;;;;;5005638;28;20478;-68
2022/10/24 11:07:21;;;;;;;3.73;1.70;;;16.30;99.90;;;;;;5019254;28;20419;-68
2022/10/24 11:09:51;;;;;;;6.97;2.40;;;16.40;99.90;;;;;;4967112;28;20483;-68
2022/10/24 11:12:37;;;;;;;3.87;1.60;;;16.30;99.90;;;;;;5004716;28;20435;-69
2022/10/24 11:15:25;;;;;;;4.73;1.47;;;16.40;99.90;;;;;;5048242;28;20438;-69
2022/10/24 11:17:52;;;;;;;5.60;1.53;;;16.40;99.90;;;;;;5048487;28;20475;-69
2022/10/24 11:20:20;;;;;;;5.27;1.63;;;16.40;99.90;;;;;;5035868;28;20813;-69
2022/10/24 11:23:13;;;;;;;8.23;1.90;;;16.40;99.90;;;;;;5035576;28;20477;-69
2022/10/24 11:26:00;;;;;;;5.13;1.70;;;16.40;99.90;;;;;;5041684;28;20459;-68
2022/10/24 11:28:55;;;;;;;7.53;2.00;;;16.40;99.90;;;;;;5009501;28;20463;-69
2022/10/24 11:31:41;;;;;;;4.13;1.60;;;16.40;99.90;;;;;;5043002;28;20469;-68
2022/10/24 11:34:13;;;;;;;9.97;2.33;;;16.40;99.90;;;;;;5046910;28;20809;-68
2022/10/24 11:36:55;;;;;;;5.80;1.70;;;16.40;99.90;;;;;;5033714;28;20397;-68
2022/10/24 11:39:30;;;;;;;6.93;2.33;;;16.40;99.90;;;;;;5037976;28;20436;-69
2022/10/24 11:42:42;;;;;;;4.70;1.73;;;16.40;99.90;;;;;;5032335;28;20557;-69
2022/10/24 11:45:19;;;;;;;8.33;1.70;;;16.50;99.90;;;;;;5021119;28;20434;-68
2022/10/24 11:48:09;;;;;;;6.47;1.83;;;16.50;99.90;;;;;;5045090;28;20451;-68
2022/10/24 11:50:48;;;;;;;4.23;1.57;;;16.50;99.90;;;;;;5031705;28;20475;-69
2022/10/24 11:53:32;;;;;;;5.53;1.37;;;16.50;99.90;;;;;;5029808;28;20454;-69
2022/10/24 11:56:16;;;;;;;7.47;2.17;;;16.50;99.90;;;;;;5033276;28;20426;-69
2022/10/24 11:58:56;;;;;;;5.57;1.87;;;16.50;99.90;;;;;;5030141;28;20878;-69
2022/10/24 12:01:40;;;;;;;8.23;2.27;;;16.50;99.90;;;;;;4996726;28;20430;-69
2022/10/24 12:04:31;;;;;;;6.63;1.80;;;16.50;99.90;;;;;;5026084;28;20526;-69
2022/10/24 12:07:21;;;;;;;7.53;1.73;;;16.50;99.90;;;;;;5028845;28;20920;-69
2022/10/24 12:09:53;;;;;;;8.83;2.20;;;16.50;99.90;;;;;;5024235;28;20466;-68
2022/10/24 12:12:46;;;;;;;9.30;2.20;;;16.50;99.90;;;;;;5044083;28;20419;-69
2022/10/24 12:15:27;;;;;;;7.87;1.80;;;16.50;99.90;;;;;;5037657;28;20452;-68
2022/10/24 12:17:56;;;;;;;5.07;1.43;;;16.50;99.90;;;;;;5012422;28;20447;-69
2022/10/24 12:20:24;;;;;;;4.43;1.60;;;16.50;99.90;;;;;;5022050;28;20496;-68
2022/10/24 12:22:51;;;;;;;6.17;1.70;;;16.50;99.90;;;;;;5048370;28;20415;-68
2022/10/24 12:25:27;;;;;;;7.03;2.70;;;16.50;99.90;;;;;;5021592;28;20429;-69
2022/10/24 12:27:58;;;;;;;6.07;2.53;;;16.50;99.90;;;;;;5044433;28;20455;-68
2022/10/24 12:30:29;;;;;;;8.10;1.87;;;16.50;99.90;;;;;;5018547;28;20478;-69
2022/10/24 12:33:09;;;;;;;10.07;1.80;;;16.50;99.90;;;;;;5048892;28;20416;-69
2022/10/24 12:35:45;;;;;;;4.90;1.80;;;16.50;99.90;;;;;;5027025;28;20462;-74
2022/10/24 12:38:38;;;;;;;12.53;2.17;;;16.60;99.90;;;;;;4999562;28;20434;-74
2022/10/24 12:41:08;;;;;;;2.93;1.80;;;16.60;99.90;;;;;;5032394;28;20482;-72
2022/10/24 12:43:42;;;;;;;5.20;2.07;;;16.60;99.90;;;;;;5032838;28;20411;-73
2022/10/24 12:46:18;;;;;;;8.43;2.73;;;16.60;99.90;;;;;;5029516;28;20423;-74
2022/10/24 12:48:57;;;;;;;6.30;1.60;;;16.60;99.90;;;;;;4992531;28;20509;-74
2022/10/24 12:51:35;;;;;;;5.77;2.30;;;16.60;99.90;;;;;;5031300;28;20419;-74
2022/10/24 12:54:10;;;;;;;7.47;1.87;;;16.60;99.90;;;;;;4983568;28;20428;-74
2022/10/24 12:57:01;;;;;;;4.03;1.50;;;16.60;99.90;;;;;;5032800;28;20438;-74
2022/10/24 12:59:30;;;;;;;5.90;1.77;;;16.60;99.90;;;;;;5036760;28;20946;-74
2022/10/24 13:02:14;;;;;;;11.40;2.60;;;16.60;99.90;;;;;;5049620;28;20434;-74
2022/10/24 13:05:03;;;;;;;10.30;2.50;;;16.60;99.90;;;;;;5035331;28;20532;-74
2022/10/24 13:07:50;;;;;;;7.00;1.77;;;16.60;99.90;;;;;;5050824;28;20446;-74
2022/10/24 13:10:32;;;;;;;5.07;1.53;;;16.60;99.90;;;;;;5033368;28;20455;-74
2022/10/24 13:13:16;;;;;;;4.63;1.70;;;16.60;99.90;;;;;;5032747;28;20527;-74
2022/10/24 13:16:03;;;;;;;6.57;2.20;;;16.60;99.90;;;;;;5045723;28;20461;-74